Time;durP1;ratioP1;P1;durP2;ratioP2;P2;SDS_P1;SDS_P2;PMS_P1;PMS_P2;Temp;Humidity;BMP_temperature;BMP_pressure;BME280_temperature;BME280_humidity;BME280_pressure;Samples;Min_cycle;Max_cycle;Signal;HPM_P1;HPM_P2
2023/05/26 00:00:18;;;;;;;20.23;4.03;;;6.20;84.00;;;;;;5047771;28;20107;-68
2023/05/26 00:02:45;;;;;;;20.92;3.67;;;6.10;84.40;;;;;;5040529;28;20049;-68
2023/05/26 00:05:13;;;;;;;16.92;4.25;;;6.10;84.50;;;;;;5047742;28;20048;-69
2023/05/26 00:07:40;;;;;;;14.57;3.17;;;6.00;85.90;;;;;;5045147;28;20029;-68
2023/05/26 00:10:07;;;;;;;12.93;3.20;;;5.90;85.10;;;;;;5047213;28;20052;-68
2023/05/26 00:12:33;;;;;;;13.68;3.63;;;5.90;85.40;;;;;;5046687;28;20037;-68
2023/05/26 00:14:58;;;;;;;13.45;2.97;;;5.90;85.60;;;;;;5045560;28;20120;-68
2023/05/26 00:17:24;;;;;;;16.50;4.18;;;6.00;85.40;;;;;;5048473;28;20118;-68
2023/05/26 00:19:52;;;;;;;11.00;3.75;;;5.90;87.10;;;;;;5042131;28;20068;-68
2023/05/26 00:22:18;;;;;;;14.05;3.15;;;5.80;87.00;;;;;;5042251;28;20360;-68
2023/05/26 00:24:45;;;;;;;11.10;3.05;;;5.80;86.10;;;;;;5042736;28;20056;-68
2023/05/26 00:27:11;;;;;;;13.23;3.42;;;5.80;85.90;;;;;;5049113;28;20137;-68
2023/05/26 00:29:37;;;;;;;15.48;3.22;;;5.80;86.40;;;;;;5047856;28;20472;-70
2023/05/26 00:32:03;;;;;;;14.27;3.95;;;5.70;85.70;;;;;;5049299;28;20051;-68
2023/05/26 00:34:29;;;;;;;20.85;3.83;;;5.70;86.10;;;;;;5049593;28;20130;-68
2023/05/26 00:36:55;;;;;;;18.98;3.78;;;5.70;86.60;;;;;;5036323;28;20037;-69
2023/05/26 00:39:20;;;;;;;12.85;3.53;;;5.60;85.90;;;;;;5029335;28;20041;-68
2023/05/26 00:41:47;;;;;;;17.65;3.28;;;5.60;86.20;;;;;;5045844;28;20108;-68
2023/05/26 00:44:13;;;;;;;19.48;3.70;;;5.60;86.20;;;;;;5048454;28;20036;-69
2023/05/26 00:46:38;;;;;;;16.25;3.45;;;5.60;86.30;;;;;;5044796;28;20057;-68
2023/05/26 00:49:04;;;;;;;17.27;3.05;;;5.60;86.10;;;;;;5049451;28;20048;-68
2023/05/26 00:51:31;;;;;;;12.70;4.35;;;5.50;86.20;;;;;;5047528;28;20083;-68
2023/05/26 00:53:57;;;;;;;21.65;3.55;;;5.50;86.50;;;;;;5045440;28;20040;-68
2023/05/26 00:56:24;;;;;;;15.40;3.72;;;5.50;86.40;;;;;;5048500;28;20428;-68
2023/05/26 00:58:50;;;;;;;15.23;3.17;;;5.50;86.60;;;;;;5032104;28;20072;-68
2023/05/26 01:01:16;;;;;;;14.77;3.40;;;5.50;86.50;;;;;;5030501;28;20080;-68
2023/05/26 01:03:42;;;;;;;16.73;3.15;;;5.40;86.40;;;;;;5049062;28;20065;-68
2023/05/26 01:06:08;;;;;;;17.50;3.17;;;5.50;86.40;;;;;;5045734;28;20057;-68
2023/05/26 01:08:33;;;;;;;15.15;3.80;;;5.40;87.70;;;;;;5046282;28;20052;-68
2023/05/26 01:11:26;;;;;;;11.82;3.22;;;5.40;87.30;;;;;;5029609;28;20045;-68
2023/05/26 01:13:59;;;;;;;14.38;2.88;;;5.40;89.10;;;;;;5022981;28;20076;-68
2023/05/26 01:16:29;;;;;;;16.25;3.47;;;5.30;87.70;;;;;;5047302;28;20045;-68
2023/05/26 01:19:06;;;;;;;21.80;3.97;;;5.30;89.10;;;;;;5044027;28;20061;-68
2023/05/26 01:21:34;;;;;;;14.13;3.35;;;5.20;88.80;;;;;;5044486;28;20041;-68
2023/05/26 01:24:11;;;;;;;15.25;3.22;;;5.20;89.00;;;;;;5047802;28;20037;-68
2023/05/26 01:27:17;;;;;;;18.25;3.50;;;5.30;88.90;;;;;;5046015;28;20033;-68
2023/05/26 01:29:43;;;;;;;13.10;3.10;;;5.30;90.00;;;;;;5038413;28;20084;-68
2023/05/26 01:32:14;;;;;;;14.77;3.65;;;5.30;89.10;;;;;;5046405;28;20488;-68
2023/05/26 01:34:40;;;;;;;14.40;3.90;;;5.30;90.00;;;;;;5048701;28;20377;-68
2023/05/26 01:37:06;;;;;;;15.43;3.30;;;5.30;89.30;;;;;;5027078;28;20158;-68
2023/05/26 01:39:32;;;;;;;14.07;3.20;;;5.30;88.60;;;;;;5049390;28;20182;-68
2023/05/26 01:42:20;;;;;;;13.70;4.05;;;5.20;88.80;;;;;;5029060;28;20128;-68
2023/05/26 01:44:56;;;;;;;16.17;4.20;;;5.20;90.40;;;;;;5042291;28;20472;-68
2023/05/26 01:47:25;;;;;;;15.30;3.38;;;5.20;89.20;;;;;;5045753;28;20049;-68
2023/05/26 01:49:51;;;;;;;11.18;2.97;;;5.20;89.30;;;;;;5048036;28;20064;-68
2023/05/26 01:52:18;;;;;;;17.02;3.55;;;5.10;88.90;;;;;;5041567;28;20033;-68
2023/05/26 01:54:50;;;;;;;14.35;3.65;;;5.10;90.00;;;;;;5046956;28;20044;-68
2023/05/26 01:57:16;;;;;;;13.13;2.55;;;5.10;90.20;;;;;;5046761;28;20049;-67
2023/05/26 01:59:42;;;;;;;16.38;3.45;;;5.00;90.00;;;;;;5049149;28;20119;-69
2023/05/26 02:02:07;;;;;;;16.08;3.28;;;5.00;90.10;;;;;;5036969;28;20112;-68
2023/05/26 02:04:33;;;;;;;18.42;3.63;;;5.00;90.00;;;;;;5031291;28;20435;-68
2023/05/26 02:07:02;;;;;;;11.20;3.33;;;5.00;89.60;;;;;;5047530;28;20542;-68
2023/05/26 02:09:29;;;;;;;15.43;3.50;;;4.90;89.50;;;;;;5046933;28;20864;-68
2023/05/26 02:11:54;;;;;;;19.48;4.07;;;4.90;89.90;;;;;;5043787;28;20109;-68
2023/05/26 02:14:20;;;;;;;9.73;3.22;;;5.00;90.50;;;;;;5044715;28;20396;-68
2023/05/26 02:16:46;;;;;;;13.80;3.53;;;5.00;90.10;;;;;;5046811;28;20602;-68
2023/05/26 02:19:12;;;;;;;11.82;2.78;;;5.00;90.10;;;;;;5042840;28;20465;-68
2023/05/26 02:21:38;;;;;;;8.88;3.38;;;4.90;89.50;;;;;;5046004;28;20045;-68
2023/05/26 02:24:04;;;;;;;13.93;4.00;;;4.80;89.30;;;;;;5045720;28;20051;-68
2023/05/26 02:26:30;;;;;;;11.10;2.95;;;4.80;90.10;;;;;;5049677;28;20392;-68
2023/05/26 02:28:56;;;;;;;18.40;4.10;;;4.80;90.20;;;;;;5051518;28;20063;-68
2023/05/26 02:31:22;;;;;;;14.13;3.10;;;4.80;90.50;;;;;;5050454;28;20465;-67
2023/05/26 02:33:48;;;;;;;16.08;4.47;;;4.80;90.50;;;;;;5049169;28;20047;-67
2023/05/26 02:36:14;;;;;;;18.60;4.03;;;4.80;90.80;;;;;;5035703;28;20148;-67
2023/05/26 02:38:40;;;;;;;16.42;3.90;;;4.80;90.80;;;;;;5045854;28;20436;-67
2023/05/26 02:41:07;;;;;;;17.48;3.83;;;4.80;90.60;;;;;;5045706;28;20129;-68
2023/05/26 02:43:33;;;;;;;14.55;3.13;;;4.90;90.80;;;;;;5048770;28;20052;-67
2023/05/26 02:45:58;;;;;;;14.18;3.40;;;5.00;90.50;;;;;;5031248;28;20053;-67
2023/05/26 02:48:24;;;;;;;21.58;5.15;;;4.90;90.60;;;;;;5051522;28;20028;-67
2023/05/26 02:50:50;;;;;;;15.23;3.20;;;4.80;90.60;;;;;;5048832;28;20378;-68
2023/05/26 02:53:15;;;;;;;12.27;3.60;;;4.90;91.00;;;;;;5041114;28;20037;-67
2023/05/26 02:55:42;;;;;;;20.98;3.83;;;4.80;90.80;;;;;;5044084;28;20037;-67
2023/05/26 02:58:07;;;;;;;17.50;3.85;;;4.90;90.80;;;;;;5048234;28;20059;-68
2023/05/26 03:00:33;;;;;;;17.73;3.90;;;4.90;90.60;;;;;;5045370;28;20048;-67
2023/05/26 03:03:00;;;;;;;16.25;4.35;;;4.80;90.50;;;;;;5047703;28;20068;-67
2023/05/26 03:05:25;;;;;;;14.90;3.63;;;4.80;90.80;;;;;;5046456;28;20041;-67
2023/05/26 03:07:51;;;;;;;14.48;3.80;;;4.70;90.70;;;;;;5058867;28;20033;-67
2023/05/26 03:10:16;;;;;;;19.45;3.88;;;4.70;90.70;;;;;;5048492;28;20333;-67
2023/05/26 03:12:42;;;;;;;13.75;3.35;;;4.80;90.70;;;;;;5045864;28;20045;-67
2023/05/26 03:15:08;;;;;;;16.77;3.85;;;4.80;90.90;;;;;;5049190;28;20037;-67
2023/05/26 03:17:33;;;;;;;19.08;3.83;;;4.80;90.60;;;;;;5047748;28;20044;-68
2023/05/26 03:19:59;;;;;;;15.23;4.07;;;4.70;90.60;;;;;;5049494;28;20048;-67
2023/05/26 03:22:25;;;;;;;14.25;3.85;;;4.60;90.70;;;;;;5029324;28;20464;-67
2023/05/26 03:24:51;;;;;;;11.60;3.80;;;4.60;90.60;;;;;;5039158;28;20120;-67
2023/05/26 03:27:17;;;;;;;15.43;3.58;;;4.60;90.80;;;;;;5042865;28;20060;-67
2023/05/26 03:29:43;;;;;;;13.02;3.65;;;4.60;90.70;;;;;;5048293;28;20043;-67
2023/05/26 03:32:08;;;;;;;18.10;3.97;;;4.60;90.90;;;;;;5040647;28;20041;-67
2023/05/26 03:34:39;;;;;;;20.30;4.60;;;4.60;91.10;;;;;;5047390;28;20764;-67
2023/05/26 03:37:05;;;;;;;17.08;4.28;;;4.60;91.00;;;;;;5049176;28;20055;-67
2023/05/26 03:39:31;;;;;;;16.92;3.75;;;4.50;91.10;;;;;;5047211;28;20041;-67
2023/05/26 03:41:57;;;;;;;14.05;4.05;;;4.50;91.20;;;;;;5047803;28;20092;-68
2023/05/26 03:44:23;;;;;;;14.48;3.78;;;4.50;91.30;;;;;;5030972;28;20045;-67
2023/05/26 03:46:49;;;;;;;12.32;3.65;;;4.50;91.30;;;;;;5048916;28;20075;-67
2023/05/26 03:49:14;;;;;;;18.02;4.35;;;4.50;91.60;;;;;;5031854;28;20045;-67
2023/05/26 03:51:40;;;;;;;17.35;3.70;;;4.60;91.20;;;;;;5049008;28;20043;-67
2023/05/26 03:54:05;;;;;;;13.35;3.83;;;4.60;91.10;;;;;;5048828;28;20037;-67
2023/05/26 03:56:32;;;;;;;16.35;4.32;;;4.70;91.10;;;;;;5049539;28;20068;-68
2023/05/26 03:58:57;;;;;;;15.50;3.17;;;4.70;91.00;;;;;;5041318;28;20033;-67
2023/05/26 04:01:25;;;;;;;19.90;4.47;;;4.60;90.90;;;;;;5016563;28;20323;-67
2023/05/26 04:03:51;;;;;;;14.75;3.92;;;4.60;91.20;;;;;;5047474;28;20128;-67
2023/05/26 04:06:16;;;;;;;14.30;4.10;;;4.70;91.30;;;;;;5031104;28;20144;-67
2023/05/26 04:08:42;;;;;;;13.40;3.60;;;4.60;91.30;;;;;;5047516;28;20040;-67
2023/05/26 04:11:08;;;;;;;12.57;3.83;;;4.70;91.50;;;;;;5048576;28;20453;-67
2023/05/26 04:13:38;;;;;;;15.60;4.75;;;4.80;91.50;;;;;;5049159;28;20306;-67
2023/05/26 04:16:04;;;;;;;12.05;3.15;;;4.80;91.20;;;;;;5041776;28;20044;-67
2023/05/26 04:18:29;;;;;;;17.58;3.67;;;4.70;91.00;;;;;;5041655;28;20041;-67
2023/05/26 04:20:55;;;;;;;18.63;4.40;;;4.70;91.20;;;;;;5047806;28;20040;-68
2023/05/26 04:23:20;;;;;;;17.00;3.53;;;4.70;91.30;;;;;;5029102;28;20093;-67
2023/05/26 04:25:46;;;;;;;10.70;3.05;;;4.90;91.60;;;;;;5031636;28;20036;-67
2023/05/26 04:28:11;;;;;;;15.68;3.53;;;4.90;91.50;;;;;;5049014;28;20051;-67
2023/05/26 04:30:39;;;;;;;9.95;3.22;;;4.90;91.20;;;;;;5045161;28;20726;-68
2023/05/26 04:33:07;;;;;;;11.50;3.45;;;4.90;91.20;;;;;;5047383;28;20059;-68
2023/05/26 04:35:36;;;;;;;17.02;3.45;;;5.00;91.40;;;;;;5044835;28;20048;-68
2023/05/26 04:38:04;;;;;;;17.00;3.92;;;5.10;91.60;;;;;;5047811;28;20053;-68
2023/05/26 04:40:34;;;;;;;13.07;3.38;;;5.10;91.40;;;;;;5047940;28;20389;-68
2023/05/26 04:43:00;;;;;;;16.00;4.18;;;5.20;91.50;;;;;;5049156;28;20147;-68
2023/05/26 04:45:26;;;;;;;21.52;4.32;;;5.30;91.70;;;;;;5045995;28;20114;-68
2023/05/26 04:47:54;;;;;;;13.63;5.35;;;5.30;91.60;;;;;;5047744;28;20053;-68
2023/05/26 04:50:22;;;;;;;14.68;3.33;;;5.40;91.70;;;;;;5031503;28;20040;-69
2023/05/26 04:52:49;;;;;;;20.33;4.60;;;5.60;91.80;;;;;;5044798;28;20156;-68
2023/05/26 04:55:14;;;;;;;18.40;3.95;;;5.70;91.70;;;;;;5047918;28;20048;-68
2023/05/26 04:57:40;;;;;;;18.40;4.35;;;5.80;92.00;;;;;;5049447;28;20047;-68
2023/05/26 05:00:09;;;;;;;21.13;4.35;;;6.00;92.10;;;;;;5048497;28;20037;-69
2023/05/26 05:02:34;;;;;;;20.13;4.65;;;6.20;92.20;;;;;;5044450;28;20037;-69
2023/05/26 05:05:00;;;;;;;13.65;4.38;;;6.30;92.00;;;;;;5047175;28;20461;-70
2023/05/26 05:07:25;;;;;;;17.83;4.65;;;6.50;92.00;;;;;;5047994;28;20477;-68
2023/05/26 05:09:51;;;;;;;16.55;4.30;;;6.80;92.00;;;;;;5047147;28;20041;-69
2023/05/26 05:12:17;;;;;;;16.60;4.03;;;7.00;91.90;;;;;;5046629;28;20045;-69
2023/05/26 05:14:42;;;;;;;25.48;4.15;;;7.20;91.90;;;;;;5048646;28;20369;-70
2023/05/26 05:17:08;;;;;;;24.25;4.72;;;7.40;91.80;;;;;;5029195;28;20045;-69
2023/05/26 05:19:33;;;;;;;21.30;4.88;;;7.60;91.80;;;;;;5044385;28;20118;-69
2023/05/26 05:21:59;;;;;;;21.33;4.45;;;7.80;91.80;;;;;;5046414;28;20052;-69
2023/05/26 05:24:24;;;;;;;15.65;4.40;;;8.00;91.80;;;;;;5040484;28;20068;-70
2023/05/26 05:26:50;;;;;;;15.88;4.53;;;8.20;91.80;;;;;;5029996;28;20041;-69
2023/05/26 05:29:15;;;;;;;19.42;4.30;;;8.40;91.70;;;;;;5045851;28;20033;-69
2023/05/26 05:31:41;;;;;;;16.67;4.07;;;8.60;91.60;;;;;;5047467;28;20091;-69
2023/05/26 05:34:06;;;;;;;22.52;4.82;;;8.80;91.50;;;;;;5043658;28;20037;-69
2023/05/26 05:36:33;;;;;;;19.38;4.20;;;9.00;91.50;;;;;;5042009;28;20128;-70
2023/05/26 05:38:58;;;;;;;21.15;4.50;;;9.10;91.40;;;;;;5047746;28;20055;-69
2023/05/26 05:41:24;;;;;;;23.67;4.30;;;9.30;91.30;;;;;;5048230;28;20041;-71
2023/05/26 05:43:49;;;;;;;21.52;5.57;;;9.50;91.00;;;;;;5045753;28;20120;-70
2023/05/26 05:46:15;;;;;;;25.38;4.05;;;9.70;91.00;;;;;;5046102;28;20060;-70
2023/05/26 05:48:42;;;;;;;21.75;5.05;;;9.90;90.60;;;;;;5047391;28;20048;-67
2023/05/26 05:51:08;;;;;;;23.55;4.15;;;10.10;90.30;;;;;;5042762;28;20041;-70
2023/05/26 05:53:34;;;;;;;23.50;4.63;;;10.30;90.00;;;;;;5047134;28;20111;-70
2023/05/26 05:55:59;;;;;;;19.77;4.03;;;10.50;89.40;;;;;;5045535;28;20424;-69
2023/05/26 05:58:25;;;;;;;23.25;3.88;;;10.70;89.00;;;;;;5048459;28;20061;-68
2023/05/26 06:00:50;;;;;;;17.08;4.10;;;10.90;87.70;;;;;;5027982;28;20037;-68
2023/05/26 06:03:16;;;;;;;17.85;3.83;;;11.00;83.90;;;;;;5043191;28;20032;-68
2023/05/26 06:05:41;;;;;;;18.95;3.65;;;11.20;86.30;;;;;;5042373;28;20056;-67
2023/05/26 06:08:07;;;;;;;19.15;4.88;;;11.40;85.70;;;;;;5045491;28;20101;-66
2023/05/26 06:10:32;;;;;;;18.95;3.75;;;11.60;81.20;;;;;;5030304;28;20036;-70
2023/05/26 06:12:58;;;;;;;17.55;4.53;;;11.60;82.90;;;;;;5030974;28;20033;-69
2023/05/26 06:15:24;;;;;;;22.25;5.22;;;11.80;82.90;;;;;;5044941;28;20191;-69
2023/05/26 06:17:49;;;;;;;21.58;4.30;;;12.00;82.40;;;;;;5043189;28;20095;-69
2023/05/26 06:20:15;;;;;;;15.75;3.53;;;12.10;81.60;;;;;;5045862;28;20045;-70
2023/05/26 06:22:41;;;;;;;19.63;3.88;;;12.30;80.60;;;;;;5038532;28;20037;-68
2023/05/26 06:25:07;;;;;;;16.95;4.28;;;12.50;80.60;;;;;;5040571;28;20044;-68
2023/05/26 06:27:32;;;;;;;17.60;4.60;;;12.60;78.10;;;;;;5030768;28;20561;-66
2023/05/26 06:29:59;;;;;;;14.43;3.80;;;12.80;77.90;;;;;;5049933;28;20037;-67
2023/05/26 06:32:25;;;;;;;18.92;3.65;;;12.80;74.90;;;;;;5037693;28;20045;-67
2023/05/26 06:34:50;;;;;;;14.48;3.97;;;12.80;76.40;;;;;;5047141;28;20357;-68
2023/05/26 06:37:16;;;;;;;20.55;3.75;;;12.80;75.60;;;;;;5040059;28;20047;-68
2023/05/26 06:39:41;;;;;;;18.92;3.80;;;13.10;74.80;;;;;;5031071;28;20515;-68
2023/05/26 06:42:07;;;;;;;15.63;3.28;;;13.20;74.30;;;;;;5025511;28;20037;-68
2023/05/26 06:44:35;;;;;;;16.55;3.15;;;13.30;73.20;;;;;;5045977;28;20029;-69
2023/05/26 06:47:01;;;;;;;19.02;4.07;;;13.50;72.20;;;;;;5041886;28;20366;-71
2023/05/26 06:49:26;;;;;;;13.07;3.70;;;13.50;71.80;;;;;;5046472;28;20041;-71
2023/05/26 06:51:52;;;;;;;16.05;3.75;;;13.40;71.10;;;;;;5044036;28;20377;-68
2023/05/26 06:54:17;;;;;;;17.85;3.35;;;13.40;70.30;;;;;;5044343;28;20037;-69
2023/05/26 06:56:43;;;;;;;16.30;4.22;;;13.70;69.60;;;;;;5044520;28;20462;-68
2023/05/26 06:59:09;;;;;;;24.00;3.78;;;13.80;69.60;;;;;;5030548;28;20372;-66
2023/05/26 07:01:35;;;;;;;12.73;3.47;;;13.90;68.90;;;;;;5046595;28;20436;-69
2023/05/26 07:04:00;;;;;;;21.73;4.35;;;14.00;68.40;;;;;;5042169;28;20128;-69
2023/05/26 07:06:26;;;;;;;15.80;3.42;;;14.20;67.10;;;;;;5045403;28;20125;-69
2023/05/26 07:08:52;;;;;;;17.48;3.55;;;14.40;67.40;;;;;;5030329;28;20090;-70
2023/05/26 07:11:17;;;;;;;15.07;3.53;;;14.60;66.50;;;;;;5048876;28;20045;-68
2023/05/26 07:13:45;;;;;;;12.73;3.60;;;14.90;63.70;;;;;;5044606;28;20550;-69
2023/05/26 07:16:10;;;;;;;13.65;3.50;;;15.20;65.40;;;;;;5046858;28;20044;-69
2023/05/26 07:18:36;;;;;;;12.93;3.20;;;15.20;65.20;;;;;;5052473;28;20041;-70
2023/05/26 07:21:02;;;;;;;13.80;3.20;;;15.50;64.00;;;;;;5048286;28;20045;-70
2023/05/26 07:23:27;;;;;;;15.98;3.70;;;15.70;61.00;;;;;;5031766;28;20033;-68
2023/05/26 07:25:53;;;;;;;15.52;3.30;;;15.70;62.00;;;;;;5045109;28;20124;-69
2023/05/26 07:28:18;;;;;;;12.70;3.15;;;15.70;61.40;;;;;;5048166;28;20064;-67
2023/05/26 07:30:44;;;;;;;17.52;3.42;;;15.90;60.10;;;;;;5046549;28;20055;-68
2023/05/26 07:33:10;;;;;;;15.82;3.00;;;16.00;60.20;;;;;;5033152;28;20045;-68
2023/05/26 07:35:36;;;;;;;12.63;3.35;;;15.90;59.70;;;;;;5045059;28;20420;-69
2023/05/26 07:38:03;;;;;;;12.55;3.28;;;16.00;59.20;;;;;;5044525;28;20114;-69
2023/05/26 07:40:34;;;;;;;12.00;3.13;;;16.20;58.40;;;;;;5030889;28;20033;-72
2023/05/26 07:43:00;;;;;;;12.30;2.72;;;16.30;57.80;;;;;;5045185;28;20410;-70
2023/05/26 07:45:25;;;;;;;10.20;2.85;;;16.50;57.40;;;;;;5032015;28;20041;-68
2023/05/26 07:47:51;;;;;;;9.50;2.58;;;16.60;56.10;;;;;;5045969;28;20139;-70
2023/05/26 07:50:16;;;;;;;13.07;3.35;;;16.80;55.20;;;;;;5032463;28;20129;-70
2023/05/26 07:52:42;;;;;;;10.07;3.70;;;16.90;55.00;;;;;;5040770;28;20045;-70
2023/05/26 07:55:07;;;;;;;11.68;3.05;;;17.20;54.50;;;;;;5046193;28;20439;-69
2023/05/26 07:57:33;;;;;;;11.88;3.03;;;17.40;53.90;;;;;;5051753;28;20287;-69
2023/05/26 07:59:59;;;;;;;11.38;3.03;;;17.50;53.60;;;;;;5026214;28;20086;-68
2023/05/26 08:02:24;;;;;;;11.45;2.90;;;17.70;52.50;;;;;;5047351;28;20033;-71
2023/05/26 08:04:50;;;;;;;7.40;2.80;;;17.80;52.40;;;;;;5045395;28;20049;-70
2023/05/26 08:07:16;;;;;;;10.00;2.65;;;17.70;51.70;;;;;;5031957;28;20036;-70
2023/05/26 08:09:41;;;;;;;9.77;3.17;;;18.00;51.20;;;;;;5050385;28;20033;-71
2023/05/26 08:12:07;;;;;;;14.25;2.83;;;18.20;50.60;;;;;;5049943;28;20128;-72
2023/05/26 08:14:33;;;;;;;13.20;3.28;;;18.30;50.30;;;;;;5030705;28;20323;-68
2023/05/26 08:16:59;;;;;;;7.75;3.35;;;18.40;48.70;;;;;;5047660;28;20505;-72
2023/05/26 08:19:24;;;;;;;13.00;3.38;;;18.80;49.20;;;;;;5051266;28;20120;-71
2023/05/26 08:21:50;;;;;;;11.57;3.17;;;18.90;48.70;;;;;;5042863;28;20055;-72
2023/05/26 08:24:15;;;;;;;8.57;2.42;;;19.10;48.00;;;;;;5045727;28;20102;-71
2023/05/26 08:26:41;;;;;;;14.20;3.30;;;19.10;47.40;;;;;;5047706;28;20044;-72
2023/05/26 08:29:08;;;;;;;9.88;3.10;;;19.60;46.60;;;;;;5049561;28;20422;-70
2023/05/26 08:31:34;;;;;;;11.65;2.97;;;19.80;46.10;;;;;;5046553;28;20071;-69
2023/05/26 08:34:00;;;;;;;9.10;2.90;;;20.20;45.20;;;;;;5047179;28;20041;-70
2023/05/26 08:36:25;;;;;;;9.05;2.65;;;20.50;44.40;;;;;;5043357;28;20535;-71
2023/05/26 08:38:51;;;;;;;10.70;2.60;;;20.70;43.60;;;;;;5044501;28;20052;-66
2023/05/26 08:41:18;;;;;;;15.52;3.05;;;20.80;43.00;;;;;;5047939;28;20041;-72
2023/05/26 08:43:58;;;;;;;10.32;2.70;;;21.20;41.90;;;;;;5039819;28;20818;-71
2023/05/26 08:46:25;;;;;;;;;;;21.40;39.80;;;;;;5044306;28;20378;-67
2023/05/26 08:48:52;;;;;;;13.52;3.08;;;21.50;38.00;;;;;;5030615;28;20096;-69
2023/05/26 08:51:17;;;;;;;9.45;2.83;;;21.50;41.60;;;;;;5044540;28;20045;-73
2023/05/26 08:53:45;;;;;;;8.50;2.95;;;21.50;40.70;;;;;;5045326;28;20059;-68
2023/05/26 08:56:11;;;;;;;7.97;2.70;;;22.10;38.90;;;;;;5029221;28;20048;-72
2023/05/26 08:58:38;;;;;;;7.82;2.95;;;22.40;38.00;;;;;;5057841;28;20510;-74
2023/05/26 09:01:03;;;;;;;8.90;2.75;;;22.70;37.50;;;;;;5050159;28;20052;-67
2023/05/26 09:03:29;;;;;;;8.00;2.45;;;23.10;36.40;;;;;;5032525;28;20033;-72
2023/05/26 09:05:55;;;;;;;11.88;3.03;;;23.00;35.90;;;;;;5045196;28;20128;-67
2023/05/26 09:08:21;;;;;;;12.85;2.72;;;23.40;34.80;;;;;;5045874;28;20033;-70
2023/05/26 09:10:47;;;;;;;9.43;2.80;;;23.30;34.60;;;;;;5043284;28;20047;-70
2023/05/26 09:13:13;;;;;;;10.63;3.22;;;23.30;33.70;;;;;;5046586;28;20039;-72
2023/05/26 09:15:40;;;;;;;10.75;2.97;;;23.20;33.20;;;;;;5046557;28;20404;-69
2023/05/26 09:18:13;;;;;;;8.60;2.60;;;23.40;32.90;;;;;;5045424;28;20041;-71
2023/05/26 09:20:46;;;;;;;6.70;2.33;;;23.40;31.60;;;;;;5049545;28;20116;-71
2023/05/26 09:23:13;;;;;;;8.93;2.53;;;23.70;31.30;;;;;;5045837;28;20383;-71
2023/05/26 09:25:41;;;;;;;12.27;2.42;;;24.30;31.90;;;;;;5046233;28;20488;-70
2023/05/26 09:28:09;;;;;;;10.60;2.92;;;24.60;31.00;;;;;;5046547;28;20366;-72
2023/05/26 09:30:38;;;;;;;9.85;2.78;;;25.00;30.60;;;;;;5027213;28;20052;-71
2023/05/26 09:33:09;;;;;;;9.80;3.70;;;25.60;30.00;;;;;;5044555;28;20384;-69
2023/05/26 09:35:40;;;;;;;9.98;2.85;;;25.40;29.10;;;;;;5047057;28;20814;-70
2023/05/26 09:38:07;;;;;;;8.75;2.97;;;25.70;28.70;;;;;;5047246;28;20586;-71
2023/05/26 09:40:33;;;;;;;7.63;2.10;;;25.80;29.10;;;;;;5044577;28;20037;-69
2023/05/26 09:43:00;;;;;;;8.75;2.70;;;25.80;29.00;;;;;;5042594;28;20437;-72
2023/05/26 09:45:32;;;;;;;8.50;2.63;;;25.80;28.70;;;;;;5048236;28;20077;-69
2023/05/26 09:47:58;;;;;;;8.77;2.80;;;25.50;28.90;;;;;;5047336;28;20345;-72
2023/05/26 09:50:24;;;;;;;7.82;2.40;;;25.00;29.10;;;;;;5043751;28;20049;-71
2023/05/26 09:52:50;;;;;;;9.90;2.72;;;24.80;29.50;;;;;;5041961;28;20107;-73
2023/05/26 09:55:17;;;;;;;8.15;2.60;;;24.80;29.50;;;;;;5063119;28;20048;-74
2023/05/26 09:57:45;;;;;;;8.25;2.40;;;25.10;29.20;;;;;;5046813;28;20071;-70
2023/05/26 10:00:16;;;;;;;8.85;2.50;;;25.40;28.00;;;;;;5042137;28;20106;-70
2023/05/26 10:02:42;;;;;;;9.45;2.70;;;25.90;27.80;;;;;;5028108;28;20152;-70
2023/05/26 10:05:08;;;;;;;8.85;2.13;;;26.30;27.70;;;;;;5044624;28;20037;-69
2023/05/26 10:07:34;;;;;;;8.68;2.35;;;26.80;27.20;;;;;;5037344;28;20041;-72
2023/05/26 10:10:01;;;;;;;9.15;2.40;;;26.70;26.90;;;;;;5047216;28;20037;-71
2023/05/26 10:12:30;;;;;;;10.45;2.50;;;27.20;26.70;;;;;;5047019;28;20080;-69
2023/05/26 10:14:56;;;;;;;8.73;2.83;;;27.20;26.50;;;;;;5047758;28;20044;-70
2023/05/26 10:17:22;;;;;;;8.32;3.08;;;27.50;26.60;;;;;;5045478;28;20056;-71
2023/05/26 10:19:48;;;;;;;13.43;3.17;;;27.90;25.80;;;;;;5061287;28;20076;-72
2023/05/26 10:22:23;;;;;;;9.65;2.65;;;28.00;26.10;;;;;;5030753;28;20083;-72
2023/05/26 10:25:00;;;;;;;10.70;2.60;;;27.60;25.00;;;;;;5031796;28;20087;-70
2023/05/26 10:27:25;;;;;;;10.13;2.72;;;28.00;25.10;;;;;;5027767;28;20051;-71
2023/05/26 10:30:04;;;;;;;7.45;1.98;;;28.40;25.50;;;;;;5041458;28;20053;-70
2023/05/26 10:32:47;;;;;;;7.05;2.08;;;28.70;25.10;;;;;;5043323;28;20559;-72
2023/05/26 10:35:32;;;;;;;7.70;2.22;;;28.50;24.90;;;;;;5032427;28;20047;-70
2023/05/26 10:38:14;;;;;;;9.95;3.03;;;28.60;25.30;;;;;;5046436;28;20122;-69
2023/05/26 10:40:43;;;;;;;5.97;2.55;;;28.50;24.00;;;;;;5038397;28;20358;-72
2023/05/26 10:43:21;;;;;;;9.73;2.85;;;27.70;25.60;;;;;;5064890;28;20380;-69
2023/05/26 10:45:58;;;;;;;10.63;2.55;;;27.20;26.20;;;;;;5053061;28;20408;-72
2023/05/26 10:48:57;;;;;;;7.55;2.90;;;26.40;26.00;;;;;;5047969;28;20148;-72
2023/05/26 10:51:27;;;;;;;6.38;2.03;;;26.00;27.10;;;;;;5050990;28;20041;-72
2023/05/26 10:53:56;;;;;;;8.13;2.60;;;25.40;27.40;;;;;;5060086;28;20511;-71
2023/05/26 10:56:44;;;;;;;7.57;2.53;;;25.10;27.90;;;;;;5055590;28;20118;-74
2023/05/26 10:59:30;;;;;;;10.95;3.17;;;24.70;28.40;;;;;;5042448;28;20140;-70
2023/05/26 11:02:00;;;;;;;6.50;2.40;;;24.10;28.60;;;;;;5053955;28;20373;-73
2023/05/26 11:04:40;;;;;;;9.80;3.20;;;23.50;30.00;;;;;;5045420;28;20041;-71
2023/05/26 11:07:13;;;;;;;;;;;23.00;30.30;;;;;;5048927;28;20041;-68
2023/05/26 11:09:58;;;;;;;4.93;2.63;;;22.80;31.00;;;;;;5050392;28;19920;-71
2023/05/26 11:12:24;;;;;;;10.82;2.67;;;22.70;31.50;;;;;;5051894;28;20040;-72
2023/05/26 11:14:49;;;;;;;9.50;2.38;;;22.50;32.20;;;;;;5040184;28;20083;-72
2023/05/26 11:17:18;;;;;;;10.75;2.30;;;22.60;32.70;;;;;;5051007;28;20071;-71
2023/05/26 11:19:56;;;;;;;9.90;2.67;;;22.30;32.60;;;;;;5031187;28;20045;-77
2023/05/26 11:22:22;;;;;;;12.45;2.42;;;21.90;32.80;;;;;;5040932;28;20051;-72
2023/05/26 11:24:52;;;;;;;14.07;3.85;;;21.90;33.30;;;;;;5045117;28;20044;-71
2023/05/26 11:27:18;;;;;;;10.43;2.90;;;21.70;33.10;;;;;;5048539;28;20037;-71
2023/05/26 11:29:47;;;;;;;8.98;2.55;;;21.50;33.40;;;;;;5050982;28;20129;-72
2023/05/26 11:32:13;;;;;;;10.73;2.67;;;21.40;33.80;;;;;;5048552;28;20035;-70
2023/05/26 11:34:39;;;;;;;9.32;2.50;;;21.40;34.10;;;;;;5049811;28;20480;-76
2023/05/26 11:37:07;;;;;;;11.73;3.00;;;21.50;34.20;;;;;;5045308;28;20040;-72
2023/05/26 11:39:34;;;;;;;11.57;2.47;;;21.30;34.30;;;;;;5041677;28;20041;-69
2023/05/26 11:42:13;;;;;;;10.80;2.58;;;21.20;34.00;;;;;;5049106;28;20036;-73
2023/05/26 11:44:39;;;;;;;10.35;2.70;;;21.30;34.40;;;;;;5047514;28;20032;-70
2023/05/26 11:47:05;;;;;;;10.70;3.22;;;21.00;34.20;;;;;;5047395;28;20235;-72
2023/05/26 11:49:31;;;;;;;10.93;2.78;;;21.30;34.60;;;;;;5048475;28;20048;-70
2023/05/26 11:51:56;;;;;;;12.10;2.88;;;21.00;34.60;;;;;;5047201;28;20029;-77
2023/05/26 11:54:22;;;;;;;7.05;2.50;;;21.10;34.60;;;;;;5046287;28;20468;-71
2023/05/26 11:56:48;;;;;;;8.20;2.50;;;21.20;34.50;;;;;;5039581;28;20334;-68
2023/05/26 11:59:18;;;;;;;10.57;3.13;;;21.30;34.60;;;;;;5043517;28;20517;-72
2023/05/26 12:01:44;;;;;;;9.18;3.03;;;21.40;34.80;;;;;;5048533;28;20029;-71
2023/05/26 12:04:10;;;;;;;12.30;2.60;;;21.40;34.70;;;;;;5049191;28;20527;-75
2023/05/26 12:06:40;;;;;;;10.18;3.15;;;21.50;34.70;;;;;;5048290;28;20037;-70
2023/05/26 12:09:19;;;;;;;7.68;2.63;;;21.50;34.50;;;;;;5048718;28;20055;-71
2023/05/26 12:11:46;;;;;;;12.70;3.08;;;21.90;34.20;;;;;;5049040;28;20315;-70
2023/05/26 12:14:13;;;;;;;9.00;2.75;;;22.20;33.70;;;;;;5045939;28;20877;-72
2023/05/26 12:16:50;;;;;;;13.18;3.03;;;22.80;32.70;;;;;;5048336;28;20488;-73
2023/05/26 12:19:18;;;;;;;9.32;3.20;;;22.60;32.20;;;;;;5048479;28;20530;-72
2023/05/26 12:21:46;;;;;;;9.57;2.92;;;22.60;32.40;;;;;;5045978;28;20040;-70
2023/05/26 12:24:12;;;;;;;13.57;4.03;;;22.30;31.90;;;;;;5044497;28;20203;-73
2023/05/26 12:26:39;;;;;;;8.50;2.83;;;22.70;31.90;;;;;;5032971;28;20047;-71
2023/05/26 12:29:06;;;;;;;8.05;3.35;;;24.00;31.40;;;;;;5044987;28;20072;-70
2023/05/26 12:31:39;;;;;;;9.77;2.97;;;24.80;30.00;;;;;;5045889;28;20045;-70
2023/05/26 12:34:04;;;;;;;9.27;2.97;;;24.20;30.30;;;;;;5046216;28;20053;-72
2023/05/26 12:36:30;;;;;;;11.90;3.20;;;24.10;30.30;;;;;;5026325;28;20091;-71
2023/05/26 12:38:55;;;;;;;12.52;3.35;;;25.60;29.80;;;;;;5046997;28;20069;-71
2023/05/26 12:41:21;;;;;;;11.00;3.30;;;26.10;29.00;;;;;;5044931;28;20365;-72
2023/05/26 12:43:46;;;;;;;8.05;2.30;;;26.30;28.70;;;;;;5045888;28;20041;-72